• Join FlightAware (Why Join?)
  • Login
  • US Flag 
11:04PM EDT


 

Airport Tracker/Info


-or-


 

Live Flight TrackerFlight Track Log ✈ SKW6345 ✈ 04-Aug-2013 ✈ KBZN - KSFO

Flight Track Log - Related Links

Times and Time Zones

All times are in EDT time to prevent confusion due to time zone crossing. See the SKW6345 flight status page for this flight to view local times or setup timezone preferences in your user account.

Time Position Orientation Groundspeed Altitude Reporting Facility
EDT Latitude Longitude Course Direction KTS MPH feet Rate Location/Type
02:54PM 45.7103 -111.1436 290° West 249 287 7,000  Level Salt Lake Center
02:55PM 45.7144 -111.2425 273° West 249 287 8,500 1,740 Climbing Salt Lake Center
02:56PM 45.7301 -111.5273 282° West  Level FlightAware Approximate
02:56PM 45.7325 -111.3536 283° West 268 308 10,600  Level Salt Lake Center
02:57PM 45.7436 -111.6793 288° West  Level FlightAware Approximate
02:57PM 45.7508 -111.4761 282° West 291 335 12,000  Level Salt Lake Center
02:58PM 45.7762 -111.8214 290° West  Level FlightAware Approximate
02:58PM 45.7172 -111.5961 248° West 322 371 14,600  Level Salt Lake Center
02:59PM 45.8146 -111.9604 296° West  Level FlightAware Approximate
03:00PM 45.8428 -112.1044 290° West  Level FlightAware Approximate
03:00PM 45.6470 -111.7097 239° Southwest  Level Estimated
03:01PM 45.6175 -111.8181 239° Southwest 335 386 17,700  Level Salt Lake Center
03:02PM 45.5539 -111.9592 237° Southwest 350 403 19,700 1,740 Climbing Salt Lake Center
03:03PM 45.4992 -112.0797 237° Southwest 359 413 21,400 1,680 Climbing Salt Lake Center
03:04PM 45.4442 -112.2006 237° Southwest 362 417 23,200 1,440 Climbing Salt Lake Center
03:05PM 45.3886 -112.3228 237° Southwest 366 421 24,400 1,200 Climbing Salt Lake Center
03:06PM 45.3256 -112.4594 237° Southwest 371 427 25,800 1,200 Climbing Salt Lake Center
03:07PM 45.2703 -112.5800 237° Southwest 378 435 26,900 960 Climbing Salt Lake Center
03:08PM 45.2053 -112.7217 237° Southwest 384 442 27,900 900 Climbing Salt Lake Center
03:09PM 45.1472 -112.8461 237° Southwest 392 451 28,800 960 Climbing Salt Lake Center
03:10PM 45.0786 -112.9925 236° Southwest 399 459 29,900 840 Climbing Salt Lake Center
03:11PM 45.0208 -113.1172 237° Southwest 399 459 30,600 660 Climbing Salt Lake Center
03:12PM 44.9506 -113.2647 236° Southwest 404 465 31,300 540 Climbing Salt Lake Center
03:13PM 44.8903 -113.3917 236° Southwest 407 468 31,800 780 Climbing Salt Lake Center
03:14PM 44.8197 -113.5403 236° Southwest 409 471 33,000 1,020 Climbing Salt Lake Center
03:15PM 44.7589 -113.6633 235° Southwest 404 465 34,000 840 Climbing Salt Lake Center
03:16PM 44.6906 -113.8050 236° Southwest 395 455 34,800 960 Climbing Salt Lake Center
03:17PM 44.6336 -113.9236 236° Southwest 386 444 36,000 720 Climbing Salt Lake Center
03:18PM 44.5739 -114.0506 237° Southwest 377 434 36,400 780 Climbing Salt Lake Center
03:19PM 44.5083 -114.1842 236° Southwest 372 428 37,700 720 Climbing Salt Lake Center
03:20PM 44.4561 -114.2939 236° Southwest 358 412 38,000 120 Climbing Salt Lake Center
03:21PM 44.4011 -114.4069 236° Southwest 362 417 38,000  Level Salt Lake Center
03:22PM 44.3342 -114.5408 235° Southwest 372 428 38,000  Level Salt Lake Center
03:23PM 44.2772 -114.6558 235° Southwest 374 430 38,000  Level Salt Lake Center
03:24PM 44.2092 -114.7897 235° Southwest 377 434 38,000  Level Salt Lake Center
03:25PM 44.1517 -114.9061 235° Southwest 379 436 38,000  Level Salt Lake Center
03:26PM 44.0819 -115.0422 235° Southwest 384 442 38,000  Level Salt Lake Center
03:27PM 44.0225 -115.1603 235° Southwest 387 445 38,000  Level Salt Lake Center
03:28PM 43.9533 -115.2975 235° Southwest 386 444 38,000  Level Salt Lake Center
03:30PM 43.8942 -115.4150 235° Southwest 385 443 38,000  Level Salt Lake Center
03:31PM 43.8336 -115.5322 234° Southwest 389 448 38,000  Level Salt Lake Center
03:32PM 43.7642 -115.6694 235° Southwest 389 448 38,000  Level Salt Lake Center
03:33PM 43.7039 -115.7869 235° Southwest 390 449 38,000  Level Salt Lake Center
03:34PM 43.6331 -115.9247 235° Southwest 391 450 38,000  Level Salt Lake Center
03:35PM 43.5725 -116.0414 234° Southwest 390 449 38,000  Level Salt Lake Center
03:36PM 43.5011 -116.1783 234° Southwest 392 451 38,000  Level Salt Lake Center
03:37PM 43.4403 -116.2958 235° Southwest 392 451 38,000  Level Salt Lake Center
03:38PM 43.3678 -116.4300 233° Southwest 390 449 38,000  Level Salt Lake Center
03:39PM 43.3064 -116.5467 234° Southwest 392 451 38,000  Level Salt Lake Center
03:40PM 43.2444 -116.6644 234° Southwest 396 456 38,000  Level Salt Lake Center
03:41PM 43.1719 -116.7983 233° Southwest 393 452 38,000  Level Salt Lake Center
03:42PM 43.1094 -116.9142 234° Southwest 394 453 38,000  Level Salt Lake Center
03:43PM 43.0372 -117.0503 234° Southwest 396 456 38,000  Level Salt Lake Center
03:44PM 42.9742 -117.1661 233° Southwest 397 457 38,000  Level Salt Lake Center
03:45PM 42.9008 -117.3022 234° Southwest 397 457 38,000  Level Salt Lake Center
03:46PM 42.8378 -117.4194 234° Southwest 399 459 38,000  Level Salt Lake Center
03:47PM 42.7639 -117.5533 233° Southwest 399 459 38,000  Level Salt Lake Center
03:48PM 42.7006 -117.6689 233° Southwest 398 458 38,000  Level Salt Lake Center
03:49PM 42.6264 -117.8033 233° Southwest 398 458 38,000  Level Salt Lake Center
03:50PM 42.5467 -117.8942 220° Southwest 397 457 38,000  Level Salt Lake Center
03:51PM 42.4336 -117.9653 205° Southwest 401 461 38,000  Level Salt Lake Center
03:52PM 42.3353 -118.0228 203° Southwest 403 464 38,000  Level Salt Lake Center
03:53PM 42.2383 -118.0839 205° Southwest 402 463 38,000  Level Salt Lake Center
03:54PM 42.1219 -118.1556 205° Southwest 404 465 38,000  Level Salt Lake Center
03:55PM 42.0247 -118.2147 204° Southwest 402 463 38,000  Level Salt Lake Center
03:56PM 41.9094 -118.2839 204° Southwest 405 466 38,000  Level Salt Lake Center
03:57PM 41.8119 -118.3436 205° Southwest 404 465 38,000  Level Salt Lake Center
03:58PM 41.6969 -118.4103 203° Southwest 403 464 38,000  Level Salt Lake Center
04:00PM 41.5989 -118.4692 204° Southwest 404 465 38,000  Level Salt Lake Center
04:01PM 41.4842 -118.5369 204° Southwest 404 465 38,000  Level Salt Lake Center
04:02PM 41.3861 -118.5947 204° Southwest 403 464 38,000  Level Salt Lake Center
04:03PM 41.2703 -118.6631 204° Southwest 407 468 38,000  Level Salt Lake Center
04:04PM 41.1700 -118.7208 203° Southwest 409 471 38,000  Level Salt Lake Center
04:05PM 41.0722 -118.7781 204° Southwest 405 466 38,000  Level Salt Lake Center
04:06PM 40.9564 -118.8456 204° Southwest 406 467 38,000  Level Salt Lake Center
04:07PM 40.8575 -118.9042 204° Southwest 407 468 38,000  Level Salt Lake Center
04:08PM 40.7414 -118.9706 203° Southwest 408 470 38,000  Level Salt Lake Center
04:09PM 40.6428 -119.0278 204° Southwest 405 466 38,000  Level Salt Lake Center
04:10PM 40.5197 -119.0981 203° Southwest 410 472 38,000  Level Salt Lake Center
04:11PM 40.4156 -119.1572 203° Southwest 409 471 38,000  Level Salt Lake Center
04:12PM 40.3111 -119.2178 204° Southwest 410 472 38,000  Level Salt Lake Center
04:13PM 40.2075 -119.2764 203° Southwest 406 467 38,000  Level Salt Lake Center
04:14PM 40.1039 -119.3347 203° Southwest 406 467 38,000  Level Salt Lake Center
04:15PM 40.0008 -119.3928 203° Southwest 405 466 38,000  Level Salt Lake Center
04:16PM 39.8750 -119.4642 204° Southwest 409 471 38,000  Level Salt Lake Center
04:17PM 39.7881 -119.5558 219° Southwest 409 471 38,000  Level Salt Lake Center
04:18PM 39.7239 -119.7528 247° West 425 489 38,000  Level Oakland Center
04:20PM 39.6850 -119.8953 251° West 422 486 38,000  Level Oakland Center
04:21PM 39.6469 -120.0392 251° West 422 486 38,000  Level Oakland Center
04:22PM 39.5997 -120.1981 249° West 412 474 38,000  Level Oakland Center
04:23PM 39.5606 -120.3425 251° West 423 487 38,000  Level Oakland Center
04:24PM 39.5192 -120.4861 250° West 427 491 38,000  Level Oakland Center
04:25PM 39.4781 -120.6311 250° West 431 496 38,000  Level Oakland Center
04:26PM 39.4578 -120.7847 260° West 447 514 38,000  Level Oakland Center
04:27PM 39.4511 -120.9417 267° West 442 509 38,000  Level Oakland Center
04:28PM 39.4436 -121.0972 266° West 438 504 38,000  Level Oakland Center
04:29PM 39.4364 -121.2542 267° West 439 505 38,000  Level Oakland Center
04:30PM 39.4283 -121.4425 267° West 439 505 38,000  Level Oakland Center
04:31PM 39.4225 -121.5992 267° West 439 505 38,000 -660 Level Oakland Center
04:32PM 39.4150 -121.7575 267° West 441 507 36,700 -1,560 Descending Oakland Center
04:33PM 39.4069 -121.9156 266° West 443 510 34,900 -1,800 Descending Oakland Center
04:34PM 39.3983 -122.0739 266° West 443 510 33,100 -1,800 Descending Oakland Center
04:35PM 39.3894 -122.2311 266° West 441 507 31,300 -1,560 Descending Oakland Center
04:36PM 39.3789 -122.4117 266° West 425 489 30,000 -660 Descending Oakland Center
04:37PM 39.3717 -122.5494 266° West 403 464 30,000  Level Oakland Center
04:38PM 39.3625 -122.6944 265° West 402 463 30,000  Level Oakland Center
04:39PM 39.3531 -122.8397 265° West 405 466 30,000  Level Oakland Center
04:40PM 39.3178 -122.9672 250° West 404 465 30,000  Level Oakland Center
04:41PM 39.2139 -122.9961 192° South 397 457 30,000  Level Oakland Center
04:42PM 39.1028 -122.9817 174° South 400 460 30,000  Level Oakland Center
04:43PM 38.9719 -122.9658 175° South 397 457 30,000  Level Oakland Center
04:44PM 38.8628 -122.9531 175° South 395 455 30,000 -840 Level Oakland Center
04:45PM 38.7528 -122.9422 176° South 397 457 28,400 -1,860 Descending Oakland Center
04:46PM 38.6464 -122.9300 175° South 388 447 26,200 -2,040 Descending Oakland Center
04:47PM 38.5444 -122.9189 175° South 376 433 24,200 -1,980 Descending Oakland Center
04:48PM 38.4464 -122.9075 175° South 362 417 22,200 -1,860 Descending Oakland Center
04:49PM 38.3511 -122.8978 175° South 351 404 20,400 -1,920 Descending Oakland Center
04:50PM 38.2489 -122.8867 175° South 315 362 18,300 -1,800 Descending Oakland Center
04:51PM 38.1661 -122.8767 175° South 302 348 16,800 -1,620 Descending Oakland Center
04:52PM 38.0844 -122.8658 174° South 297 342 15,100 -1,620 Descending Oakland Center
04:53PM 38.0183 -122.8003 142° Southeast 305 351 13,500 -1,500 Descending Oakland Center
04:54PM 37.9564 -122.7342 140° Southeast 298 343 12,100 -1,260 Descending Oakland Center
04:55PM 37.8847 -122.6558 139° Southeast 291 335 11,000 -600 Descending Oakland Center
04:56PM 37.8333 -122.6000 139° Southeast 289 333 11,000  Level Northern Cal TRACON
04:57PM 37.7833 -122.5333 133° Southeast 241 277 11,000  Level Northern Cal TRACON
04:58PM 37.7333 -122.4833 142° Southeast 209 241 11,000  Level Northern Cal TRACON
04:59PM 37.7167 -122.4167 108° East 213 245 11,100 -660 Climbing Northern Cal TRACON
05:00PM 37.7000 -122.3500 108° East 214 246 9,700 -1,500 Descending Northern Cal TRACON
05:01PM 37.6667 -122.2833 122° Southeast 220 253 8,200 -1,500 Descending Northern Cal TRACON
05:02PM 37.6500 -122.2167 108° East 207 238 6,700 -1,500 Descending Northern Cal TRACON
05:03PM 37.6167 -122.1500 122° Southeast 194 223 5,200 -1,500 Descending Northern Cal TRACON
05:04PM 37.5833 -122.1333 158° South 194 223 3,700 -1,140 Descending Northern Cal TRACON
05:05PM 37.5667 -122.1833 247° West 177 204 3,000 -960 Descending Northern Cal TRACON
05:06PM 37.5833 -122.2500 288° West 168 193 1,800 -900 Descending Northern Cal TRACON
05:07PM 37.5833 -122.2833 270° West 129 148 1,300 -600 Descending Northern Cal TRACON
05:08PM 37.6000 -122.3333 293° West 134 154 600 -720 Descending Northern Cal TRACON